Time;durP1;ratioP1;P1;durP2;ratioP2;P2;SDS_P1;SDS_P2;PMS_P1;PMS_P2;Temp;Humidity;BMP_temperature;BMP_pressure;BME280_temperature;BME280_humidity;BME280_pressure;Samples;Min_cycle;Max_cycle;Signal;HPM_P1;HPM_P2
2022/05/12 00:01:23;;;;;;;7.37;6.47;;;15.10;99.90;;;;;;5063564;28;20207;-68
2022/05/12 00:03:49;;;;;;;6.07;5.67;;;15.10;99.90;;;;;;5053612;28;20171;-68
2022/05/12 00:06:15;;;;;;;9.33;6.80;;;15.10;99.90;;;;;;5061072;28;20651;-68
2022/05/12 00:08:41;;;;;;;6.73;6.33;;;15.20;99.90;;;;;;5073508;28;20178;-66
2022/05/12 00:11:06;;;;;;;7.77;7.20;;;15.10;99.90;;;;;;5071943;28;20202;-68
2022/05/12 00:13:33;;;;;;;8.80;7.33;;;15.10;99.90;;;;;;5072260;28;20281;-68
2022/05/12 00:15:58;;;;;;;8.20;7.07;;;15.10;99.90;;;;;;5056561;28;20214;-68
2022/05/12 00:18:25;;;;;;;7.50;6.63;;;15.10;99.90;;;;;;5052107;28;20261;-67
2022/05/12 00:20:52;;;;;;;7.60;7.00;;;15.00;99.90;;;;;;5067607;28;20225;-68
2022/05/12 00:23:21;;;;;;;7.33;6.57;;;15.00;99.90;;;;;;5073399;28;20257;-68
2022/05/12 00:25:49;;;;;;;7.30;6.53;;;15.00;99.90;;;;;;5059690;28;20702;-68
2022/05/12 00:28:16;;;;;;;8.40;7.60;;;14.90;99.90;;;;;;5053201;28;20643;-67
2022/05/12 00:30:44;;;;;;;7.23;6.23;;;14.90;99.90;;;;;;5064583;28;20292;-68
2022/05/12 00:33:10;;;;;;;7.80;7.00;;;14.90;99.90;;;;;;5073104;28;20597;-67
2022/05/12 00:35:36;;;;;;;7.30;6.67;;;14.90;99.90;;;;;;5062246;28;20245;-67
2022/05/12 00:38:03;;;;;;;8.00;7.20;;;14.90;99.90;;;;;;5051701;28;20613;-68
2022/05/12 00:40:29;;;;;;;7.93;6.93;;;15.00;99.90;;;;;;5068573;28;20206;-68
2022/05/12 00:43:04;;;;;;;8.63;8.03;;;15.00;99.90;;;;;;5073132;28;20220;-68
2022/05/12 00:45:35;;;;;;;8.33;7.57;;;15.10;99.90;;;;;;5071947;28;20192;-67
2022/05/12 00:48:02;;;;;;;6.97;6.30;;;15.10;99.90;;;;;;5053165;28;20174;-67
2022/05/12 00:50:39;;;;;;;7.90;7.30;;;15.20;99.90;;;;;;5065898;28;20384;-68
2022/05/12 00:53:09;;;;;;;7.97;7.27;;;15.20;99.90;;;;;;5073063;28;20224;-67
2022/05/12 00:55:38;;;;;;;9.17;7.37;;;15.20;99.90;;;;;;5072338;28;20255;-68
2022/05/12 00:58:07;;;;;;;7.30;6.80;;;15.20;99.90;;;;;;5052667;28;20236;-69
2022/05/12 01:00:34;;;;;;;7.80;7.20;;;15.30;99.90;;;;;;5062264;28;20202;-68
2022/05/12 01:03:05;;;;;;;7.70;7.10;;;15.30;99.90;;;;;;5071699;28;20186;-66
2022/05/12 01:05:31;;;;;;;6.67;6.17;;;15.30;99.90;;;;;;5070879;28;20178;-67
2022/05/12 01:07:58;;;;;;;9.10;6.20;;;15.20;99.90;;;;;;5068643;28;20189;-67
2022/05/12 01:10:25;;;;;;;11.13;6.80;;;15.20;99.90;;;;;;5050991;28;20201;-67
2022/05/12 01:12:52;;;;;;;7.50;6.70;;;15.20;99.90;;;;;;5066100;28;20709;-68
2022/05/12 01:15:21;;;;;;;10.03;6.43;;;15.20;99.90;;;;;;5072015;28;20256;-68
2022/05/12 01:17:47;;;;;;;6.67;6.07;;;15.10;99.90;;;;;;5058390;28;20178;-66
2022/05/12 01:20:13;;;;;;;6.83;6.33;;;15.10;99.90;;;;;;5052371;28;20185;-67
2022/05/12 01:22:57;;;;;;;7.37;6.73;;;15.10;99.90;;;;;;5062226;28;20544;-67
2022/05/12 01:25:26;;;;;;;7.17;6.57;;;15.10;99.90;;;;;;5070016;28;20186;-67
2022/05/12 01:27:52;;;;;;;8.43;6.67;;;15.10;99.90;;;;;;5072196;28;20174;-68
2022/05/12 01:30:20;;;;;;;7.93;6.70;;;15.10;99.90;;;;;;5066853;28;20183;-67
2022/05/12 01:32:47;;;;;;;10.70;6.93;;;15.00;99.90;;;;;;5051701;28;20174;-68
2022/05/12 01:35:14;;;;;;;7.40;6.47;;;14.90;99.90;;;;;;5054459;28;20206;-68
2022/05/12 01:37:42;;;;;;;7.93;7.23;;;14.90;99.90;;;;;;5072198;28;20581;-68
2022/05/12 01:40:10;;;;;;;6.70;6.30;;;14.80;99.90;;;;;;5062321;28;20214;-67
2022/05/12 01:42:36;;;;;;;7.60;6.67;;;14.70;99.90;;;;;;5051719;28;20178;-68
2022/05/12 01:45:03;;;;;;;7.40;6.60;;;14.70;99.90;;;;;;5058863;28;20186;-68
2022/05/12 01:47:29;;;;;;;8.37;7.57;;;14.60;99.90;;;;;;5071729;28;20178;-68
2022/05/12 01:49:55;;;;;;;7.97;7.00;;;14.60;99.90;;;;;;5065545;28;20671;-68
2022/05/12 01:52:21;;;;;;;8.83;6.77;;;14.50;99.90;;;;;;5050194;28;20229;-67
2022/05/12 01:54:46;;;;;;;7.33;6.73;;;14.40;99.90;;;;;;5053706;28;20748;-68
2022/05/12 01:57:12;;;;;;;7.97;7.17;;;14.40;99.90;;;;;;5071566;28;20177;-67
2022/05/12 01:59:37;;;;;;;6.83;6.27;;;14.30;99.90;;;;;;5068061;28;20174;-68
2022/05/12 02:02:03;;;;;;;10.10;7.63;;;14.20;99.90;;;;;;5051397;28;20289;-68
2022/05/12 02:04:29;;;;;;;8.23;7.43;;;14.10;99.90;;;;;;5051082;28;20203;-66
2022/05/12 02:06:54;;;;;;;9.13;7.47;;;14.10;99.90;;;;;;5052430;28;20210;-68
2022/05/12 02:09:20;;;;;;;8.13;7.43;;;14.00;99.90;;;;;;5051390;28;20174;-66
2022/05/12 02:11:46;;;;;;;8.87;7.97;;;13.90;99.90;;;;;;5069320;28;20205;-66
2022/05/12 02:14:12;;;;;;;9.17;8.37;;;13.90;99.90;;;;;;5062950;28;20684;-68
2022/05/12 02:16:38;;;;;;;9.07;8.17;;;13.80;99.90;;;;;;5050752;28;20171;-68
2022/05/12 02:19:05;;;;;;;7.97;7.30;;;13.70;99.90;;;;;;5057390;28;20170;-67
2022/05/12 02:21:32;;;;;;;8.83;7.63;;;13.70;99.90;;;;;;5071285;28;20197;-68
2022/05/12 02:23:59;;;;;;;10.03;8.47;;;13.60;99.90;;;;;;5064977;28;20163;-68
2022/05/12 02:26:26;;;;;;;8.50;7.80;;;13.60;99.90;;;;;;5049587;28;20630;-67
2022/05/12 02:28:51;;;;;;;8.10;7.43;;;13.50;99.90;;;;;;5052057;28;20170;-67
2022/05/12 02:31:17;;;;;;;10.60;8.00;;;13.40;99.90;;;;;;5069963;28;20194;-67
2022/05/12 02:33:43;;;;;;;8.93;8.03;;;13.30;99.90;;;;;;5062034;28;20692;-67
2022/05/12 02:36:09;;;;;;;8.43;7.57;;;13.20;99.90;;;;;;5050924;28;20289;-67
2022/05/12 02:38:34;;;;;;;8.37;7.57;;;13.20;99.90;;;;;;5056660;28;20170;-68
2022/05/12 02:41:00;;;;;;;8.53;7.93;;;13.10;99.90;;;;;;5068517;28;20926;-68
2022/05/12 02:43:26;;;;;;;9.93;8.10;;;13.10;99.90;;;;;;5049691;28;20170;-67
2022/05/12 02:46:04;;;;;;;9.10;8.23;;;13.00;99.90;;;;;;5051231;28;20715;-67
2022/05/12 02:48:33;;;;;;;8.20;7.50;;;13.00;99.90;;;;;;5071497;28;20166;-67
2022/05/12 02:50:59;;;;;;;8.97;8.03;;;12.90;99.90;;;;;;5084973;28;20189;-67
2022/05/12 02:53:25;;;;;;;9.83;8.97;;;12.90;99.90;;;;;;5070040;28;20167;-66
2022/05/12 02:55:51;;;;;;;8.97;8.13;;;12.80;99.90;;;;;;5069524;28;20296;-66
2022/05/12 02:58:17;;;;;;;10.53;9.13;;;12.80;99.90;;;;;;5087084;28;20170;-67
2022/05/12 03:00:43;;;;;;;9.17;8.40;;;12.80;99.90;;;;;;5081823;28;20198;-67
2022/05/12 03:03:09;;;;;;;9.83;8.47;;;12.70;99.90;;;;;;5053382;28;20179;-68
2022/05/12 03:05:36;;;;;;;9.67;8.77;;;12.70;99.90;;;;;;5051640;28;20171;-67
2022/05/12 03:08:03;;;;;;;9.83;9.03;;;12.60;99.90;;;;;;5071760;28;20174;-67
2022/05/12 03:10:30;;;;;;;9.23;8.50;;;12.60;99.90;;;;;;5071647;28;20194;-67
2022/05/12 03:12:55;;;;;;;10.57;8.43;;;12.50;99.90;;;;;;5053596;28;20175;-67
2022/05/12 03:15:21;;;;;;;12.40;8.77;;;12.50;99.90;;;;;;5051176;28;20232;-67
2022/05/12 03:17:46;;;;;;;11.77;9.77;;;12.50;99.90;;;;;;5067654;28;20216;-68
2022/05/12 03:20:16;;;;;;;11.37;9.50;;;12.50;99.90;;;;;;5070322;28;20662;-68
2022/05/12 03:22:41;;;;;;;9.90;9.00;;;12.40;99.90;;;;;;5056570;28;20193;-68
2022/05/12 03:25:10;;;;;;;11.67;10.27;;;12.40;99.90;;;;;;5052274;28;20175;-68
2022/05/12 03:27:36;;;;;;;9.53;8.73;;;12.30;99.90;;;;;;5055860;28;20179;-68
2022/05/12 03:30:03;;;;;;;10.37;9.33;;;12.30;99.90;;;;;;5054904;28;20640;-68
2022/05/12 03:32:29;;;;;;;10.10;9.27;;;12.20;99.90;;;;;;5065781;28;20173;-68
2022/05/12 03:34:55;;;;;;;10.83;9.87;;;12.10;99.90;;;;;;5074089;28;20206;-67
2022/05/12 03:37:20;;;;;;;13.90;9.47;;;12.10;99.90;;;;;;5064388;28;20190;-67
2022/05/12 03:39:46;;;;;;;11.00;9.80;;;12.00;99.90;;;;;;5054263;28;20636;-67
2022/05/12 03:42:12;;;;;;;15.27;9.87;;;12.00;99.90;;;;;;5062081;28;20214;-67
2022/05/12 03:44:47;;;;;;;11.23;10.20;;;11.90;99.90;;;;;;5073626;28;20253;-67
2022/05/12 03:47:14;;;;;;;10.90;9.87;;;11.90;99.90;;;;;;5066515;28;20191;-67
2022/05/12 03:49:41;;;;;;;12.27;10.37;;;11.90;99.90;;;;;;5054122;28;20181;-67
2022/05/12 03:52:07;;;;;;;15.47;10.07;;;11.90;99.90;;;;;;5059802;28;20244;-67
2022/05/12 03:54:34;;;;;;;11.73;10.00;;;11.90;99.90;;;;;;5070131;28;20190;-67
2022/05/12 03:57:00;;;;;;;13.13;10.57;;;11.90;99.90;;;;;;5053851;28;20246;-67
2022/05/12 03:59:26;;;;;;;14.53;11.57;;;11.90;99.90;;;;;;5055081;28;20167;-67
2022/05/12 04:01:52;;;;;;;12.23;10.80;;;11.90;99.90;;;;;;5072512;28;20197;-67
2022/05/12 04:04:17;;;;;;;12.50;10.37;;;11.90;99.90;;;;;;5073686;28;20193;-67
2022/05/12 04:06:43;;;;;;;14.43;10.93;;;11.90;99.90;;;;;;5052096;28;20711;-67
2022/05/12 04:09:08;;;;;;;13.37;10.57;;;11.90;99.90;;;;;;5052636;28;20667;-67
2022/05/12 04:11:34;;;;;;;10.77;9.70;;;11.90;99.90;;;;;;5071284;28;20274;-67
2022/05/12 04:13:59;;;;;;;11.53;10.47;;;11.90;99.90;;;;;;5063024;28;20179;-67
2022/05/12 04:16:25;;;;;;;11.90;10.17;;;11.90;99.90;;;;;;5053201;28;20202;-67
2022/05/12 04:18:51;;;;;;;15.30;9.73;;;11.90;99.90;;;;;;5061768;28;20193;-67
2022/05/12 04:21:16;;;;;;;10.03;9.07;;;12.00;99.90;;;;;;5072359;28;20190;-67
2022/05/12 04:23:44;;;;;;;12.80;9.87;;;12.00;99.90;;;;;;5059913;28;20549;-67
2022/05/12 04:26:10;;;;;;;10.73;9.83;;;12.00;99.90;;;;;;5053476;28;20706;-67
2022/05/12 04:28:37;;;;;;;12.87;11.40;;;12.10;99.90;;;;;;5063163;28;20185;-67
2022/05/12 04:31:02;;;;;;;10.10;9.30;;;12.20;99.90;;;;;;5073276;28;20678;-67
2022/05/12 04:36:13;;;;;;;11.53;10.33;;;12.30;99.90;;;;;;5052030;28;20263;-67
2022/05/12 04:38:39;;;;;;;16.03;10.50;;;12.50;99.90;;;;;;5063548;28;20284;-67
2022/05/12 04:41:05;;;;;;;15.63;9.60;;;12.80;99.90;;;;;;5073067;28;20301;-67
2022/05/12 04:43:30;;;;;;;10.53;9.47;;;13.10;99.90;;;;;;5062127;28;20198;-67
2022/05/12 04:45:56;;;;;;;12.00;9.63;;;13.30;99.90;;;;;;5052693;28;20170;-67
2022/05/12 04:48:22;;;;;;;9.40;8.63;;;13.50;99.90;;;;;;5054103;28;20190;-67
2022/05/12 04:50:47;;;;;;;9.47;8.67;;;13.60;99.90;;;;;;5052605;28;20186;-67
2022/05/12 04:53:13;;;;;;;8.30;7.60;;;13.60;99.90;;;;;;5058514;28;20174;-67
2022/05/12 04:55:38;;;;;;;9.80;8.67;;;13.70;99.90;;;;;;5072185;28;20557;-67
2022/05/12 04:58:04;;;;;;;8.73;8.03;;;13.70;99.90;;;;;;5067199;28;20270;-67
2022/05/12 05:00:33;;;;;;;8.93;8.33;;;13.60;99.90;;;;;;5052460;28;20652;-67
2022/05/12 05:02:59;;;;;;;8.30;7.47;;;13.50;99.90;;;;;;5053874;28;20240;-67
2022/05/12 05:05:26;;;;;;;11.30;8.77;;;13.50;99.90;;;;;;5069830;28;20174;-67
2022/05/12 05:07:52;;;;;;;9.33;8.23;;;13.60;99.90;;;;;;5072622;28;20249;-67
2022/05/12 05:10:18;;;;;;;12.23;8.23;;;13.60;99.90;;;;;;5072482;28;20181;-67
2022/05/12 05:12:44;;;;;;;15.30;7.50;;;13.60;99.90;;;;;;5072251;28;20194;-67
2022/05/12 05:15:11;;;;;;;9.80;8.10;;;13.70;99.90;;;;;;5071386;28;20291;-67
2022/05/12 05:17:37;;;;;;;8.77;7.97;;;13.80;99.90;;;;;;5056349;28;20194;-67
2022/05/12 05:20:06;;;;;;;7.97;7.27;;;13.90;99.90;;;;;;5052418;28;20171;-67
2022/05/12 05:22:36;;;;;;;10.57;8.17;;;14.00;99.90;;;;;;5053165;28;20260;-67
2022/05/12 05:25:03;;;;;;;8.27;7.57;;;13.90;99.90;;;;;;5052057;28;20171;-67
2022/05/12 05:27:29;;;;;;;11.43;8.13;;;14.00;99.90;;;;;;5065176;28;20181;-67
2022/05/12 05:29:55;;;;;;;8.03;7.33;;;14.00;99.90;;;;;;5072118;28;20170;-67
2022/05/12 05:32:20;;;;;;;7.47;6.63;;;14.20;99.90;;;;;;5070265;28;20709;-67
2022/05/12 05:34:46;;;;;;;7.50;6.67;;;14.30;99.90;;;;;;5071397;28;20694;-67
2022/05/12 05:37:12;;;;;;;7.40;6.70;;;14.40;99.90;;;;;;5061549;28;20202;-67
2022/05/12 05:39:38;;;;;;;7.33;6.70;;;14.70;99.90;;;;;;5051895;28;20205;-67
2022/05/12 05:42:10;;;;;;;7.33;6.73;;;14.90;99.90;;;;;;5051403;28;20705;-67
2022/05/12 05:44:35;;;;;;;5.70;5.20;;;15.50;99.90;;;;;;5051778;28;20267;-67
2022/05/12 05:47:02;;;;;;;5.40;5.00;;;16.10;99.90;;;;;;5057804;28;20268;-67
2022/05/12 05:49:29;;;;;;;5.63;5.10;;;16.50;99.90;;;;;;5071454;28;20170;-67
2022/05/12 05:54:40;;;;;;;5.60;5.10;;;17.60;99.90;;;;;;5070778;28;20401;-65
2022/05/12 05:57:05;;;;;;;6.23;4.73;;;17.90;99.90;;;;;;5064338;28;20182;-65
2022/05/12 05:59:31;;;;;;;4.77;4.40;;;18.10;99.90;;;;;;5051573;28;20170;-65
2022/05/12 06:01:57;;;;;;;6.50;5.20;;;18.30;99.90;;;;;;5056532;28;20293;-65
2022/05/12 06:04:23;;;;;;;5.57;5.07;;;18.50;99.90;;;;;;5071600;28;20249;-65
2022/05/12 06:06:49;;;;;;;7.53;4.70;;;18.90;99.90;;;;;;5067343;28;20186;-65
2022/05/12 06:09:15;;;;;;;4.97;4.57;;;19.30;99.90;;;;;;5050241;28;20201;-66
2022/05/12 06:11:42;;;;;;;9.20;4.77;;;19.70;99.90;;;;;;5051381;28;20255;-66
2022/05/12 06:14:08;;;;;;;5.75;4.78;;;20.00;99.90;;;;;;5063329;28;20178;-66
2022/05/12 06:16:35;;;;;;;5.00;4.60;;;19.80;99.90;;;;;;5070773;28;20202;-66
2022/05/12 06:19:01;;;;;;;6.07;5.50;;;19.80;99.90;;;;;;5069534;28;20186;-66
2022/05/12 06:21:27;;;;;;;7.40;5.10;;;19.80;99.90;;;;;;5069818;28;20242;-66
2022/05/12 06:23:53;;;;;;;5.53;5.03;;;19.90;99.90;;;;;;5060515;28;20194;-66
2022/05/12 06:26:20;;;;;;;7.17;5.10;;;19.80;99.90;;;;;;5051149;28;20238;-66
2022/05/12 06:28:47;;;;;;;5.90;5.37;;;19.70;99.90;;;;;;5052145;28;20175;-66
2022/05/12 06:31:19;;;;;;;7.30;5.07;;;19.70;99.90;;;;;;5051223;28;20190;-66
2022/05/12 06:33:45;;;;;;;8.07;6.22;;;19.50;99.90;;;;;;5058962;28;20194;-66
2022/05/12 06:36:10;;;;;;;7.93;6.68;;;19.70;99.90;;;;;;5070652;28;20228;-66
2022/05/12 06:38:38;;;;;;;9.85;7.13;;;20.00;99.90;;;;;;5068871;28;20536;-65
2022/05/12 06:41:04;;;;;;;7.63;6.90;;;20.20;99.90;;;;;;5070878;28;20276;-66
2022/05/12 06:43:30;;;;;;;7.67;6.97;;;20.20;99.90;;;;;;5060943;28;20175;-66
2022/05/12 06:45:56;;;;;;;9.00;6.90;;;20.10;99.90;;;;;;5050549;28;20174;-66
2022/05/12 06:48:23;;;;;;;9.48;6.88;;;20.10;99.90;;;;;;5058722;28;20239;-66
2022/05/12 06:50:49;;;;;;;9.38;7.40;;;20.30;99.90;;;;;;5070615;28;20189;-66
2022/05/12 06:53:15;;;;;;;7.57;6.75;;;20.70;99.90;;;;;;5064153;28;20632;-66
2022/05/12 06:55:40;;;;;;;9.82;7.43;;;21.00;99.90;;;;;;5050354;28;20282;-66
2022/05/12 06:58:06;;;;;;;7.53;6.70;;;20.90;99.90;;;;;;5055561;28;20261;-66
2022/05/12 07:00:32;;;;;;;7.22;6.63;;;20.60;99.90;;;;;;5072653;28;20230;-66
2022/05/12 07:02:57;;;;;;;9.30;7.05;;;20.50;99.90;;;;;;5068477;28;20174;-66
2022/05/12 07:05:26;;;;;;;7.65;6.75;;;20.60;99.90;;;;;;5072959;28;20439;-66
2022/05/12 07:07:52;;;;;;;6.20;5.57;;;20.70;99.90;;;;;;5074554;28;20257;-66
2022/05/12 07:10:20;;;;;;;9.55;7.05;;;20.90;99.90;;;;;;5069870;28;20221;-66
2022/05/12 07:12:47;;;;;;;12.27;5.55;;;21.20;99.90;;;;;;5074089;28;20197;-66
2022/05/12 07:15:14;;;;;;;9.25;6.18;;;21.70;99.90;;;;;;5068253;28;20234;-66
2022/05/12 07:17:43;;;;;;;9.55;6.03;;;21.90;99.90;;;;;;5054156;28;20178;-66
2022/05/12 07:28:28;;;;;;;6.90;4.93;;;22.90;99.90;;;;;;5068655;28;20567;-66
2022/05/12 07:31:00;;;;;;;5.53;5.03;;;22.80;99.90;;;;;;5074060;28;20720;-66
2022/05/12 07:33:29;;;;;;;6.47;5.35;;;23.00;99.90;;;;;;5074169;28;20607;-67
2022/05/12 07:35:55;;;;;;;8.07;5.65;;;23.30;99.90;;;;;;5052828;28;20268;-66
2022/05/12 07:38:20;;;;;;;6.97;5.82;;;23.20;99.90;;;;;;5054051;28;20403;-67
2022/05/12 07:40:46;;;;;;;6.43;5.22;;;22.90;99.90;;;;;;5052289;28;20312;-67
2022/05/12 07:43:11;;;;;;;5.15;4.75;;;23.00;99.90;;;;;;5062693;28;20208;-67
2022/05/12 07:45:37;;;;;;;6.63;4.97;;;23.30;99.90;;;;;;5061457;28;20184;-66
2022/05/12 07:48:03;;;;;;;6.20;5.13;;;23.40;99.90;;;;;;5089354;28;20182;-67
2022/05/12 07:50:29;;;;;;;6.15;5.55;;;23.50;99.90;;;;;;5071487;28;20281;-67
2022/05/12 07:52:55;;;;;;;6.88;4.85;;;23.80;99.90;;;;;;5069437;28;20174;-66
2022/05/12 07:55:21;;;;;;;5.47;4.97;;;23.80;99.90;;;;;;5052128;28;20199;-66
2022/05/12 07:57:47;;;;;;;5.72;5.07;;;23.80;99.90;;;;;;5066637;28;20526;-66
2022/05/12 08:00:14;;;;;;;5.53;5.03;;;23.80;99.90;;;;;;5073597;28;20596;-67
2022/05/12 08:02:39;;;;;;;4.00;3.70;;;23.80;99.90;;;;;;5060672;28;20220;-67
2022/05/12 08:05:05;;;;;;;6.53;4.97;;;24.00;99.90;;;;;;5054316;28;20178;-67
2022/05/12 08:07:31;;;;;;;7.63;4.30;;;24.00;99.90;;;;;;5068441;28;20261;-66
2022/05/12 08:10:01;;;;;;;5.15;4.18;;;24.00;99.90;;;;;;5068915;28;20269;-67
2022/05/12 08:12:27;;;;;;;6.00;4.22;;;24.10;99.90;;;;;;5062873;28;20177;-66
2022/05/12 08:14:54;;;;;;;5.32;3.92;;;24.10;99.90;;;;;;5059388;28;20288;-66
2022/05/12 08:17:20;;;;;;;4.15;3.85;;;24.20;99.90;;;;;;5061267;28;20166;-66
2022/05/12 08:19:45;;;;;;;4.63;4.10;;;24.10;99.90;;;;;;5061248;28;20202;-67
2022/05/12 08:22:11;;;;;;;7.57;4.63;;;24.30;99.90;;;;;;5053166;28;20692;-66
2022/05/12 08:24:37;;;;;;;4.95;4.57;;;24.70;99.90;;;;;;5054893;28;20256;-67
2022/05/12 08:27:03;;;;;;;3.72;3.53;;;24.70;99.90;;;;;;5054975;28;20179;-67
2022/05/12 08:29:29;;;;;;;4.82;4.22;;;24.90;99.90;;;;;;5066312;28;20174;-67
2022/05/12 08:31:55;;;;;;;4.57;4.18;;;24.90;99.90;;;;;;5061834;28;20691;-66
2022/05/12 08:34:20;;;;;;;4.47;4.07;;;24.90;99.90;;;;;;5059975;28;20224;-66
2022/05/12 08:36:49;;;;;;;4.90;4.50;;;24.50;99.90;;;;;;5072431;28;20166;-66
2022/05/12 08:39:16;;;;;;;4.78;4.30;;;23.40;99.90;;;;;;5066622;28;20257;-66
2022/05/12 08:42:08;;;;;;;6.22;4.40;;;23.20;99.90;;;;;;5052871;28;20325;-66
2022/05/12 08:44:39;;;;;;;4.70;4.30;;;23.60;99.90;;;;;;5060228;28;20216;-66
2022/05/12 08:47:10;;;;;;;4.63;4.22;;;23.70;99.90;;;;;;5067077;28;20265;-66
2022/05/12 08:49:45;;;;;;;4.57;4.22;;;23.20;99.90;;;;;;5058578;28;20329;-66
2022/05/12 08:52:14;;;;;;;4.22;4.00;;;22.80;99.90;;;;;;5052802;28;20194;-66
2022/05/12 08:54:46;;;;;;;4.68;4.20;;;22.90;99.90;;;;;;5052330;28;20202;-66
2022/05/12 08:57:27;;;;;;;4.82;4.40;;;23.30;99.90;;;;;;5052731;28;20182;-66
2022/05/12 08:59:53;;;;;;;5.00;4.18;;;23.80;99.90;;;;;;5053020;28;20503;-66
2022/05/12 09:02:46;;;;;;;5.15;4.70;;;23.70;99.90;;;;;;5052548;28;20621;-66
2022/05/12 09:05:15;;;;;;;5.22;4.07;;;23.90;99.90;;;;;;5051691;28;20668;-66
2022/05/12 09:07:50;;;;;;;6.80;4.00;;;23.90;99.90;;;;;;5052248;28;20175;-66
2022/05/12 09:10:31;;;;;;;4.07;3.78;;;23.60;99.90;;;;;;5052338;28;20174;-66
2022/05/12 09:13:10;;;;;;;3.97;3.67;;;23.70;99.90;;;;;;5052202;28;20170;-66
2022/05/12 09:15:40;;;;;;;8.63;4.05;;;24.20;99.90;;;;;;5052027;28;20813;-66
2022/05/12 09:18:24;;;;;;;4.00;3.70;;;24.20;99.90;;;;;;5052280;28;20178;-66
2022/05/12 09:20:49;;;;;;;3.75;3.50;;;24.50;99.90;;;;;;5051993;28;20350;-66
2022/05/12 09:23:15;;;;;;;5.35;4.30;;;24.90;99.90;;;;;;5051765;28;20324;-66
2022/05/12 09:25:44;;;;;;;4.25;3.85;;;25.10;99.90;;;;;;5051729;28;20182;-66
2022/05/12 09:28:18;;;;;;;3.60;3.30;;;25.50;99.90;;;;;;5052116;28;20273;-66
2022/05/12 09:30:44;;;;;;;3.40;3.20;;;25.90;99.90;;;;;;5050487;28;20269;-66
2022/05/12 09:33:10;;;;;;;4.25;3.85;;;25.60;99.90;;;;;;5051970;28;20265;-66
2022/05/12 09:35:35;;;;;;;4.35;3.95;;;25.40;99.90;;;;;;5051515;28;20285;-66
2022/05/12 09:38:22;;;;;;;3.50;3.30;;;25.40;99.90;;;;;;5051825;28;20175;-66
2022/05/12 09:40:48;;;;;;;3.65;3.35;;;25.50;99.90;;;;;;5076634;22;20639;-65
2022/05/12 09:43:31;;;;;;;3.55;3.25;;;25.70;99.90;;;;;;5050947;28;20195;-65
2022/05/12 09:46:29;;;;;;;3.72;3.53;;;26.30;99.90;;;;;;5051667;28;20210;-66
2022/05/12 09:49:16;;;;;;;5.03;3.30;;;26.20;99.90;;;;;;5051833;28;20332;-65
2022/05/12 09:51:42;;;;;;;3.45;3.17;;;26.00;99.90;;;;;;5051860;28;20226;-65
2022/05/12 09:54:19;;;;;;;3.50;3.20;;;25.90;99.90;;;;;;5051752;28;20202;-68
2022/05/12 09:56:57;;;;;;;3.85;3.55;;;25.30;99.90;;;;;;5051228;28;20259;-66
2022/05/12 09:59:27;;;;;;;3.40;3.20;;;24.30;99.90;;;;;;5051706;28;20174;-64
2022/05/12 10:01:57;;;;;;;6.10;3.55;;;23.70;99.90;;;;;;5051456;28;20191;-65
2022/05/12 10:10:20;;;;;;;3.75;3.22;;;24.60;99.90;;;;;;5051684;28;20202;-66
2022/05/12 10:12:58;;;;;;;3.40;3.10;;;25.40;99.90;;;;;;5051395;28;20607;-65
2022/05/12 10:15:30;;;;;;;3.33;3.10;;;26.10;99.90;;;;;;5051054;28;20209;-66
2022/05/12 10:18:04;;;;;;;3.50;3.20;;;26.30;99.90;;;;;;5051718;28;20510;-66
2022/05/12 10:20:32;;;;;;;3.40;3.10;;;25.80;99.90;;;;;;5051233;28;20166;-65
2022/05/12 10:23:01;;;;;;;3.63;3.28;;;25.20;99.90;;;;;;5050691;28;20361;-65
2022/05/12 10:26:00;;;;;;;2.92;2.75;;;24.80;99.90;;;;;;5052940;28;20612;-65
2022/05/12 10:28:43;;;;;;;4.68;2.78;;;25.00;99.90;;;;;;5051110;28;20174;-65
2022/05/12 10:31:37;;;;;;;3.60;3.08;;;25.00;99.90;;;;;;5056891;28;20344;-66
2022/05/12 10:34:40;;;;;;;3.75;3.30;;;25.40;99.90;;;;;;5072785;28;20174;-65
2022/05/12 10:37:37;;;;;;;3.53;3.33;;;26.00;99.90;;;;;;5056425;28;20243;-65
2022/05/12 10:40:25;;;;;;;3.53;3.25;;;25.50;99.90;;;;;;5055132;28;20175;-66
2022/05/12 10:43:09;;;;;;;3.75;3.45;;;25.10;99.90;;;;;;5054753;28;20293;-66
2022/05/12 10:45:38;;;;;;;3.25;2.97;;;24.90;99.90;;;;;;5054838;28;20167;-65
2022/05/12 10:48:16;;;;;;;3.35;3.15;;;24.80;99.90;;;;;;5055194;28;20228;-64
2022/05/12 10:50:55;;;;;;;3.03;2.83;;;25.20;99.90;;;;;;5054937;28;20179;-65
2022/05/12 10:53:48;;;;;;;3.45;3.20;;;25.60;99.90;;;;;;5035379;28;20209;-65
2022/05/12 10:56:26;;;;;;;3.50;2.92;;;26.00;99.90;;;;;;5040903;28;20203;-66
2022/05/12 10:59:16;;;;;;;3.45;3.00;;;26.40;99.90;;;;;;5054785;28;20253;-65
2022/05/12 11:01:50;;;;;;;3.97;3.00;;;26.70;99.90;;;;;;5053428;28;20198;-64
2022/05/12 11:04:21;;;;;;;5.30;3.25;;;27.00;98.70;;;;;;5054819;28;20174;-65
2022/05/12 11:06:53;;;;;;;3.08;2.88;;;27.10;97.90;;;;;;5054159;28;20668;-65
2022/05/12 11:09:22;;;;;;;3.00;2.50;;;27.30;98.80;;;;;;5053630;28;20174;-64
2022/05/12 11:11:52;;;;;;;3.42;3.05;;;27.70;97.50;;;;;;5054514;28;20591;-67
2022/05/12 11:14:25;;;;;;;3.10;2.90;;;27.30;96.90;;;;;;5054670;28;20166;-65
2022/05/12 11:17:03;;;;;;;3.35;3.05;;;26.40;97.70;;;;;;5054018;28;20273;-65
2022/05/12 11:19:28;;;;;;;6.70;3.08;;;26.30;95.90;;;;;;5054408;28;20179;-65
2022/05/12 11:22:03;;;;;;;4.85;3.17;;;25.90;96.50;;;;;;5054431;28;20199;-66
2022/05/12 11:24:56;;;;;;;3.35;3.08;;;25.90;97.50;;;;;;5054110;28;20174;-65
2022/05/12 11:27:24;;;;;;;3.78;3.40;;;26.30;97.20;;;;;;5054458;28;20171;-65
2022/05/12 11:30:05;;;;;;;3.63;3.28;;;26.30;98.40;;;;;;5054074;28;20517;-66
2022/05/12 11:32:43;;;;;;;3.55;3.25;;;26.10;97.90;;;;;;5054181;28;20186;-65
2022/05/12 11:35:19;;;;;;;3.67;3.47;;;25.80;98.00;;;;;;5053535;28;20260;-65
2022/05/12 11:37:46;;;;;;;3.47;3.28;;;25.20;98.80;;;;;;5054415;28;20179;-65
2022/05/12 11:40:33;;;;;;;3.67;3.42;;;25.00;99.20;;;;;;5053913;28;20224;-65
2022/05/12 11:46:21;;;;;;;3.53;3.22;;;25.30;99.90;;;;;;5053231;28;20596;-66
2022/05/12 11:49:13;;;;;;;4.10;3.35;;;25.50;99.90;;;;;;5053511;28;20175;-66
2022/05/12 11:51:55;;;;;;;3.60;3.30;;;25.90;97.80;;;;;;5033741;28;20191;-66
2022/05/12 11:54:30;;;;;;;3.72;3.40;;;25.50;98.10;;;;;;5039407;28;20186;-66
2022/05/12 11:56:57;;;;;;;3.88;3.53;;;25.70;99.60;;;;;;5053803;28;20181;-66
2022/05/12 11:59:31;;;;;;;3.67;3.38;;;25.20;99.60;;;;;;5053648;28;20175;-65
2022/05/12 12:02:22;;;;;;;5.13;3.83;;;24.40;99.10;;;;;;5053895;28;20195;-67
2022/05/12 12:04:51;;;;;;;3.47;3.28;;;24.40;99.90;;;;;;5039225;28;20244;-65
2022/05/12 12:07:31;;;;;;;3.95;3.50;;;24.80;99.00;;;;;;5053994;28;20573;-64
2022/05/12 12:10:21;;;;;;;3.80;3.20;;;24.80;99.00;;;;;;5053408;28;20652;-65
2022/05/12 12:12:48;;;;;;;4.10;3.65;;;25.00;98.40;;;;;;5053445;28;20305;-65
2022/05/12 12:15:35;;;;;;;4.40;3.70;;;25.10;98.10;;;;;;5053502;28;20256;-66
2022/05/12 12:18:25;;;;;;;3.92;3.63;;;24.90;99.20;;;;;;5054389;28;20190;-64
2022/05/12 12:20:59;;;;;;;3.80;3.50;;;25.00;99.60;;;;;;5054143;28;20183;-65
2022/05/12 12:23:35;;;;;;;3.67;3.47;;;25.10;98.90;;;;;;5053535;28;20228;-65
2022/05/12 12:26:09;;;;;;;3.47;3.22;;;25.70;98.30;;;;;;5053535;28;20620;-65
2022/05/12 12:29:15;;;;;;;3.67;3.35;;;25.70;98.10;;;;;;5053762;28;20228;-66
2022/05/12 12:31:50;;;;;;;5.40;4.20;;;25.20;98.20;;;;;;5053837;28;20195;-65
2022/05/12 12:34:21;;;;;;;3.72;3.42;;;24.50;98.50;;;;;;5053510;28;20178;-66
2022/05/12 12:36:50;;;;;;;3.92;3.63;;;24.40;98.90;;;;;;5053330;28;20260;-66
2022/05/12 12:39:42;;;;;;;4.97;4.00;;;24.60;99.40;;;;;;5052976;28;20203;-66
2022/05/12 12:42:20;;;;;;;3.90;3.60;;;24.90;99.90;;;;;;5052890;28;20203;-65
2022/05/12 12:44:52;;;;;;;4.85;3.50;;;25.10;99.90;;;;;;5051201;28;20182;-65
2022/05/12 12:47:26;;;;;;;3.97;3.70;;;25.20;99.00;;;;;;5052876;28;20179;-65
2022/05/12 12:50:27;;;;;;;5.18;4.05;;;25.40;98.40;;;;;;5033502;28;20176;-65
2022/05/12 12:52:56;;;;;;;6.72;3.97;;;24.80;98.20;;;;;;5036312;28;20778;-66
2022/05/12 12:58:28;;;;;;;4.68;3.80;;;23.70;99.40;;;;;;5052252;28;20675;-65
2022/05/12 13:01:01;;;;;;;4.43;4.03;;;23.90;99.90;;;;;;5052563;28;20265;-66
2022/05/12 13:03:32;;;;;;;5.35;4.20;;;23.70;99.90;;;;;;5052778;28;20170;-65
2022/05/12 13:06:16;;;;;;;4.28;3.97;;;23.80;99.20;;;;;;5052275;28;20182;-65
2022/05/12 13:08:42;;;;;;;3.97;3.65;;;23.90;99.90;;;;;;5054122;28;20316;-67
2022/05/12 13:11:18;;;;;;;3.92;3.60;;;24.30;99.90;;;;;;5072493;28;20194;-67
2022/05/12 13:13:49;;;;;;;4.95;4.18;;;25.00;99.90;;;;;;5072891;28;20525;-67
2022/05/12 13:16:16;;;;;;;4.03;3.72;;;25.60;99.90;;;;;;5066265;28;20198;-67
2022/05/12 13:18:49;;;;;;;4.22;3.50;;;25.80;98.70;;;;;;5052559;28;20159;-67
2022/05/12 13:21:32;;;;;;;4.32;4.03;;;25.40;98.40;;;;;;5051117;28;20659;-66
2022/05/12 13:24:19;;;;;;;4.38;3.92;;;24.90;99.60;;;;;;5052786;28;20548;-66
2022/05/12 13:26:48;;;;;;;4.25;3.80;;;24.80;99.90;;;;;;5051713;28;20178;-67